createdAt,value
2019-04-16T00:01:07.340Z,55.05
2019-04-16T00:03:39.127Z,54.40
2019-04-16T00:06:22.954Z,56.90
2019-04-16T00:08:58.876Z,57.30
2019-04-16T00:11:39.663Z,58.83
2019-04-16T00:14:17.158Z,59.75
2019-04-16T00:16:47.134Z,60.05
2019-04-16T00:19:17.080Z,63.70
2019-04-16T00:21:54.699Z,58.30
2019-04-16T00:24:27.338Z,62.30
2019-04-16T00:26:59.121Z,61.00
2019-04-16T00:29:32.644Z,55.80
2019-04-16T00:32:01.489Z,63.73
2019-04-16T00:34:31.595Z,62.55
2019-04-16T00:37:01.603Z,63.02
2019-04-16T00:39:31.828Z,60.70
2019-04-16T00:42:01.837Z,57.65
2019-04-16T00:44:31.869Z,57.60
2019-04-16T00:47:01.852Z,59.05
2019-04-16T00:49:31.790Z,57.33
2019-04-16T00:52:05.921Z,66.57
2019-04-16T00:54:33.845Z,63.28
2019-04-16T00:57:04.154Z,64.35
2019-04-16T00:59:34.152Z,61.70
2019-04-16T01:02:04.129Z,62.60
2019-04-16T01:04:34.411Z,59.77
2019-04-16T01:07:04.578Z,56.58
2019-04-16T01:09:35.708Z,62.67
2019-04-16T01:12:05.848Z,60.92
2019-04-16T01:14:35.945Z,61.33
2019-04-16T01:17:05.940Z,62.23
2019-04-16T01:19:38.280Z,67.72
2019-04-16T01:22:07.639Z,68.30
2019-04-16T01:24:37.593Z,64.97
2019-04-16T01:27:07.716Z,64.42
2019-04-16T01:29:37.863Z,63.78
2019-04-16T01:32:18.409Z,68.15
2019-04-16T01:35:02.573Z,65.10
2019-04-16T01:37:39.888Z,69.47
2019-04-16T01:40:11.868Z,66.42
2019-04-16T01:42:41.883Z,61.30
2019-04-16T01:45:11.955Z,65.70
2019-04-16T01:47:41.988Z,63.85
2019-04-16T01:50:13.921Z,68.15
2019-04-16T01:52:43.605Z,61.65
2019-04-16T01:55:13.616Z,68.35
2019-04-16T01:57:43.663Z,62.85
2019-04-16T02:00:14.348Z,65.67
2019-04-16T02:02:46.270Z,66.17
2019-04-16T02:05:15.968Z,62.25
2019-04-16T02:07:45.978Z,61.50
2019-04-16T02:10:16.150Z,71.42
2019-04-16T02:12:46.226Z,61.00
2019-04-16T02:15:16.266Z,60.35
2019-04-16T02:17:46.352Z,63.20
2019-04-16T02:20:16.347Z,66.10
2019-04-16T02:22:46.358Z,58.63
2019-04-16T02:25:19.298Z,61.20
2019-04-16T02:27:48.156Z,66.28
2019-04-16T02:30:18.359Z,64.30
2019-04-16T02:32:48.314Z,65.20
2019-04-16T02:35:18.315Z,60.00
2019-04-16T02:37:48.313Z,62.75
2019-04-16T02:40:18.985Z,61.05
2019-04-16T02:42:50.552Z,53.75
2019-04-16T02:45:23.512Z,56.80
2019-04-16T02:47:52.359Z,61.48
2019-04-16T02:50:30.224Z,59.40
2019-04-16T02:53:01.106Z,66.82
2019-04-16T02:55:35.405Z,60.48
2019-04-16T02:58:16.389Z,61.90
2019-04-16T03:01:03.034Z,59.88
2019-04-16T03:03:34.808Z,58.75
2019-04-16T03:06:05.899Z,57.65
2019-04-16T03:08:36.131Z,60.92
2019-04-16T03:11:08.203Z,60.38
2019-04-16T03:13:38.216Z,57.23
2019-04-16T03:16:09.936Z,57.05
2019-04-16T03:18:46.693Z,55.85
2019-04-16T03:21:13.280Z,58.08
2019-04-16T03:23:43.310Z,56.35
2019-04-16T03:26:16.511Z,56.18
2019-04-16T03:28:45.024Z,55.38
2019-04-16T03:31:22.514Z,57.43
2019-04-16T03:33:50.387Z,55.67
2019-04-16T03:36:18.352Z,53.08
2019-04-16T03:38:48.345Z,58.13
2019-04-16T03:41:18.419Z,55.70
2019-04-16T03:43:48.382Z,56.58
2019-04-16T03:46:18.322Z,51.77
2019-04-16T03:48:48.340Z,53.38
2019-04-16T03:51:18.394Z,54.00
2019-04-16T03:53:49.664Z,52.40
2019-04-16T03:56:20.063Z,59.45
2019-04-16T03:58:50.060Z,53.15
2019-04-16T04:01:20.025Z,50.63
2019-04-16T04:03:50.538Z,56.45
2019-04-16T04:06:20.465Z,48.75
2019-04-16T04:08:53.114Z,47.45
2019-04-16T04:11:23.148Z,51.28
2019-04-16T04:13:53.264Z,46.45
2019-04-16T04:16:23.499Z,56.80
2019-04-16T04:18:53.998Z,51.73
2019-04-16T04:21:24.062Z,56.83
2019-04-16T04:23:53.988Z,52.98
2019-04-16T04:26:24.205Z,55.20
2019-04-16T04:28:54.496Z,49.33
2019-04-16T04:31:24.637Z,56.90
2019-04-16T04:33:54.926Z,49.95
2019-04-16T04:36:27.071Z,51.53
2019-04-16T04:38:57.421Z,47.05
2019-04-16T04:41:27.644Z,50.12
2019-04-16T04:43:57.660Z,51.83
2019-04-16T04:46:27.820Z,54.77
2019-04-16T04:49:00.189Z,46.77
2019-04-16T04:51:29.723Z,46.48
2019-04-16T04:53:59.853Z,49.25
2019-04-16T04:56:29.797Z,54.05
2019-04-16T04:59:02.423Z,45.33
2019-04-16T05:01:32.022Z,52.83
2019-04-16T05:04:06.364Z,57.50
2019-04-16T05:06:38.185Z,51.48
2019-04-16T05:09:08.218Z,53.83
2019-04-16T05:11:39.623Z,49.85
2019-04-16T05:14:09.813Z,53.65
2019-04-16T05:16:40.412Z,54.38
2019-04-16T05:19:13.743Z,47.25
2019-04-16T05:21:44.519Z,48.58
2019-04-16T05:24:15.068Z,47.73
2019-04-16T05:26:45.189Z,44.63
2019-04-16T05:29:17.365Z,48.23
2019-04-16T05:31:47.126Z,42.62
2019-04-16T05:34:18.318Z,47.27
2019-04-16T05:36:48.571Z,48.00
2019-04-16T05:39:18.958Z,44.90
2019-04-16T05:41:50.464Z,58.13
2019-04-16T05:44:21.317Z,49.65
2019-04-16T05:46:52.114Z,52.93
2019-04-16T05:49:24.943Z,53.15
2019-04-16T05:51:54.435Z,46.20
2019-04-16T05:54:35.284Z,46.92
2019-04-16T05:57:07.254Z,45.25
2019-04-16T05:59:37.623Z,46.65
2019-04-16T06:02:09.243Z,45.78
2019-04-16T06:04:39.458Z,52.27
2019-04-16T06:07:09.507Z,48.70
2019-04-16T06:09:41.492Z,52.17
2019-04-16T06:12:12.548Z,61.20
2019-04-16T06:14:53.828Z,54.70
2019-04-16T06:17:40.459Z,59.93
2019-04-16T06:20:21.728Z,58.23
2019-04-16T06:23:10.346Z,52.78
2019-04-16T06:25:42.223Z,53.33
2019-04-16T06:28:14.347Z,56.95
2019-04-16T06:30:45.982Z,57.48
2019-04-16T06:33:17.840Z,55.65
2019-04-16T06:35:52.132Z,62.80
2019-04-16T06:38:25.165Z,56.90
2019-04-16T06:41:15.206Z,66.35
2019-04-16T06:43:58.387Z,57.38
2019-04-16T06:46:31.191Z,56.15
2019-04-16T06:49:03.139Z,53.73
2019-04-16T06:51:51.304Z,46.45
2019-04-16T06:54:38.323Z,48.60
2019-04-16T06:57:12.174Z,50.55
2019-04-16T07:00:02.354Z,53.68
2019-04-16T07:02:43.078Z,47.43
2019-04-16T07:05:24.027Z,50.40
2019-04-16T07:08:10.698Z,50.90
2019-04-16T07:10:58.830Z,55.00
2019-04-16T07:13:29.779Z,51.37
2019-04-16T07:15:59.860Z,49.10
2019-04-16T07:18:30.073Z,52.48
2019-04-16T07:21:00.227Z,51.48
2019-04-16T07:23:30.577Z,57.65
2019-04-16T07:26:03.393Z,55.60
2019-04-16T07:28:50.845Z,51.02
2019-04-16T07:31:33.483Z,48.17
2019-04-16T07:34:02.363Z,46.80
2019-04-16T07:36:34.083Z,62.58
2019-04-16T07:39:29.155Z,48.73
2019-04-16T07:42:09.374Z,47.45
2019-04-16T07:44:47.224Z,43.78
2019-04-16T07:47:25.249Z,52.10
2019-04-16T07:50:00.466Z,46.05
2019-04-16T07:52:33.072Z,42.78
2019-04-16T07:55:05.460Z,40.12
2019-04-16T07:57:35.622Z,40.70
2019-04-16T08:00:09.870Z,33.88
2019-04-16T08:02:39.838Z,44.20
2019-04-16T08:05:12.955Z,34.50
2019-04-16T08:07:43.401Z,31.42
2019-04-16T08:10:16.651Z,31.80
2019-04-16T08:12:47.176Z,24.92
2019-04-16T08:15:19.519Z,23.60
2019-04-16T08:17:49.922Z,17.98
2019-04-16T08:20:21.208Z,15.78
2019-04-16T08:22:53.286Z,24.50
2019-04-16T08:25:33.743Z,15.88
2019-04-16T08:28:00.295Z,15.93
2019-04-16T08:30:34.119Z,14.18
2019-04-16T08:33:02.421Z,13.72
2019-04-16T08:35:32.416Z,13.05
2019-04-16T08:38:02.416Z,9.68
2019-04-16T08:40:32.448Z,10.25
2019-04-16T08:43:02.698Z,10.95
2019-04-16T08:45:32.863Z,10.30
2019-04-16T08:48:03.532Z,13.00
2019-04-16T08:50:34.016Z,10.70
2019-04-16T08:53:04.272Z,14.95
2019-04-16T08:55:34.687Z,11.88
2019-04-16T08:58:06.343Z,12.58
2019-04-16T09:00:37.889Z,7.87
2019-04-16T09:03:08.535Z,11.38
2019-04-16T09:05:41.265Z,11.65
2019-04-16T09:08:21.826Z,12.68
2019-04-16T09:10:49.799Z,9.25
2019-04-16T09:13:21.443Z,11.68
2019-04-16T09:15:51.566Z,9.08
2019-04-16T09:18:40.055Z,10.43
2019-04-16T09:21:11.701Z,9.33
2019-04-16T09:23:43.965Z,13.32
2019-04-16T09:26:22.588Z,11.18
2019-04-16T09:28:54.903Z,8.00
2019-04-16T09:31:35.387Z,16.50
2019-04-16T09:34:07.136Z,10.80
2019-04-16T09:36:51.807Z,10.50
2019-04-16T09:39:35.926Z,14.68
2019-04-16T09:42:06.397Z,11.38
2019-04-16T09:44:36.475Z,9.40
2019-04-16T09:47:06.517Z,9.20
2019-04-16T09:49:37.661Z,15.18
2019-04-16T09:52:08.994Z,8.33
2019-04-16T09:54:41.560Z,8.05
2019-04-16T09:57:11.159Z,9.90
2019-04-16T09:59:44.744Z,9.13
2019-04-16T10:02:19.247Z,10.95
2019-04-16T10:04:49.437Z,12.25
2019-04-16T10:07:19.882Z,11.28
2019-04-16T10:09:51.463Z,9.58
2019-04-16T10:12:21.865Z,9.15
2019-04-16T10:14:52.105Z,9.85
2019-04-16T10:17:22.893Z,13.48
2019-04-16T10:19:52.919Z,14.95
2019-04-16T10:22:23.554Z,15.68
2019-04-16T10:24:58.410Z,12.73
2019-04-16T10:27:36.609Z,12.20
2019-04-16T10:30:25.132Z,8.68
2019-04-16T10:32:55.505Z,13.08
2019-04-16T10:35:25.761Z,10.45
2019-04-16T10:37:55.843Z,10.05
2019-04-16T10:40:30.470Z,8.25
2019-04-16T10:43:20.382Z,11.40
2019-04-16T10:46:09.721Z,12.82
2019-04-16T10:48:46.536Z,9.13
2019-04-16T10:51:24.477Z,8.35
2019-04-16T10:53:59.510Z,9.05
2019-04-16T10:56:49.264Z,7.20
2019-04-16T10:59:30.386Z,10.13
2019-04-16T11:02:18.048Z,8.53
2019-04-16T11:04:56.127Z,11.83
2019-04-16T11:07:31.663Z,9.58
2019-04-16T11:10:01.744Z,10.05
2019-04-16T11:12:32.900Z,9.58
2019-04-16T11:15:06.457Z,11.65
2019-04-16T11:17:35.416Z,8.30
2019-04-16T11:20:07.008Z,9.47
2019-04-16T11:22:36.825Z,9.20
2019-04-16T11:25:07.741Z,11.03
2019-04-16T11:27:37.874Z,10.82
2019-04-16T11:30:10.286Z,8.77
2019-04-16T11:32:40.533Z,10.45
2019-04-16T11:35:13.049Z,8.60
2019-04-16T11:37:44.468Z,13.80
2019-04-16T11:40:13.460Z,7.73
2019-04-16T11:42:44.632Z,10.78
2019-04-16T11:45:15.266Z,7.17
2019-04-16T11:47:48.035Z,11.63
2019-04-16T11:50:17.207Z,9.57
2019-04-16T11:52:46.941Z,11.53
2019-04-16T11:55:16.962Z,8.03
2019-04-16T11:57:46.870Z,8.50
2019-04-16T12:00:19.719Z,11.60
2019-04-16T12:02:51.154Z,8.13
2019-04-16T12:05:22.491Z,12.47
2019-04-16T12:07:56.593Z,8.37
2019-04-16T12:10:46.151Z,7.97
2019-04-16T12:13:31.007Z,8.20
2019-04-16T12:16:02.434Z,6.90
2019-04-16T12:18:45.023Z,6.53
2019-04-16T12:21:16.433Z,11.47
2019-04-16T12:23:54.243Z,8.20
2019-04-16T12:26:38.289Z,7.90
2019-04-16T12:29:25.964Z,8.17
2019-04-16T12:32:04.144Z,9.07
2019-04-16T12:34:41.824Z,11.77
2019-04-16T12:37:22.100Z,11.77
2019-04-16T12:40:00.163Z,6.33
2019-04-16T12:42:34.830Z,8.30
2019-04-16T12:45:09.508Z,5.87
2019-04-16T12:47:47.095Z,12.30
2019-04-16T12:50:19.108Z,7.53
2019-04-16T12:52:54.929Z,14.90
2019-04-16T12:55:31.394Z,7.83
2019-04-16T12:57:59.642Z,9.47
2019-04-16T13:00:31.719Z,8.50
2019-04-16T13:03:05.627Z,8.83
2019-04-16T13:05:40.109Z,8.63
2019-04-16T13:08:17.087Z,10.53
2019-04-16T13:10:51.262Z,9.20
2019-04-16T13:13:22.803Z,9.80
2019-04-16T13:15:57.381Z,9.97
2019-04-16T13:18:34.854Z,7.53
2019-04-16T13:21:16.127Z,9.30
2019-04-16T13:23:48.899Z,7.87
2019-04-16T13:26:23.827Z,6.40
2019-04-16T13:28:55.432Z,7.70
2019-04-16T13:31:25.432Z,8.97
2019-04-16T13:33:55.181Z,8.87
2019-04-16T13:36:27.831Z,9.00
2019-04-16T13:38:57.990Z,7.77
2019-04-16T13:41:27.865Z,9.83
2019-04-16T13:43:59.186Z,8.77
2019-04-16T13:46:30.237Z,5.57
2019-04-16T13:49:14.383Z,5.53
2019-04-16T13:51:45.019Z,9.50
2019-04-16T13:54:28.083Z,6.63
2019-04-16T13:57:00.045Z,6.90
2019-04-16T13:59:31.630Z,8.33
2019-04-16T14:02:06.352Z,6.90
2019-04-16T14:04:37.095Z,9.73
2019-04-16T14:07:07.190Z,6.40
2019-04-16T14:09:36.943Z,6.63
2019-04-16T14:12:08.509Z,5.83
2019-04-16T14:14:38.398Z,7.17
2019-04-16T14:17:10.960Z,5.30
2019-04-16T14:19:41.003Z,6.80
2019-04-16T14:22:11.194Z,5.50
2019-04-16T14:24:41.233Z,9.00
2019-04-16T14:27:13.969Z,9.07
2019-04-16T14:29:42.776Z,8.87
2019-04-16T14:32:12.921Z,6.23
2019-04-16T14:34:50.303Z,7.50
2019-04-16T14:37:20.260Z,6.90
2019-04-16T14:40:03.953Z,7.23
2019-04-16T14:42:33.700Z,6.50
2019-04-16T14:45:09.807Z,5.57
2019-04-16T14:47:39.786Z,4.17
2019-04-16T14:50:13.173Z,5.40
2019-04-16T14:52:41.219Z,6.93
2019-04-16T14:55:29.523Z,6.87
2019-04-16T14:58:09.916Z,7.67
2019-04-16T15:00:56.632Z,6.67
2019-04-16T15:03:28.380Z,5.57
2019-04-16T15:06:11.972Z,8.50
2019-04-16T15:08:43.722Z,9.80
2019-04-16T15:11:21.031Z,6.97
2019-04-16T15:14:01.642Z,9.00
2019-04-16T15:16:33.330Z,8.70
2019-04-16T15:19:16.658Z,9.23
2019-04-16T15:22:04.495Z,9.97
2019-04-16T15:24:51.907Z,7.47
2019-04-16T15:27:23.384Z,11.17
2019-04-16T15:29:56.605Z,20.47
2019-04-16T15:32:27.869Z,7.50
2019-04-16T15:34:58.444Z,6.87
2019-04-16T15:37:45.159Z,6.17
2019-04-16T15:40:15.693Z,10.40
2019-04-16T15:42:49.883Z,5.83
2019-04-16T15:45:21.250Z,11.17
2019-04-16T15:48:11.063Z,8.67
2019-04-16T15:50:51.652Z,9.03
2019-04-16T15:53:39.620Z,6.07
2019-04-16T15:56:13.618Z,9.40
2019-04-16T15:58:45.070Z,7.57
2019-04-16T16:01:19.403Z,9.27
2019-04-16T16:03:56.968Z,8.43
2019-04-16T16:06:28.493Z,6.50
2019-04-16T16:08:59.896Z,8.27
2019-04-16T16:11:37.048Z,13.03
2019-04-16T16:14:07.009Z,8.33
2019-04-16T16:16:41.997Z,10.60
2019-04-16T16:19:10.948Z,5.73
2019-04-16T16:21:39.520Z,7.03
2019-04-16T16:24:09.268Z,11.77
2019-04-16T16:26:41.013Z,7.70
2019-04-16T16:29:10.697Z,9.90
2019-04-16T16:31:40.455Z,10.37
2019-04-16T16:34:10.194Z,7.80
2019-04-16T16:36:40.675Z,11.97
2019-04-16T16:39:10.758Z,15.87
2019-04-16T16:41:41.682Z,10.33
2019-04-16T16:44:11.341Z,9.40
2019-04-16T16:46:57.455Z,8.40
2019-04-16T16:49:23.139Z,10.47
2019-04-16T16:52:10.773Z,10.57
2019-04-16T16:54:42.303Z,13.43
2019-04-16T16:57:13.713Z,11.47
2019-04-16T16:59:51.709Z,8.93
2019-04-16T17:02:23.153Z,10.13
2019-04-16T17:04:54.493Z,11.75
2019-04-16T17:07:25.560Z,10.20
2019-04-16T17:09:55.707Z,10.82
2019-04-16T17:12:25.453Z,10.40
2019-04-16T17:14:55.200Z,8.60
2019-04-16T17:17:25.012Z,21.87
2019-04-16T17:19:55.066Z,9.68
2019-04-16T17:22:25.120Z,11.80
2019-04-16T17:24:55.147Z,9.05
2019-04-16T17:27:26.305Z,13.70
2019-04-16T17:29:56.430Z,11.65
2019-04-16T17:32:28.386Z,13.75
2019-04-16T17:34:58.422Z,12.13
2019-04-16T17:37:28.927Z,10.90
2019-04-16T17:40:00.790Z,12.03
2019-04-16T17:42:37.008Z,11.83
2019-04-16T17:45:20.244Z,10.25
2019-04-16T17:48:00.903Z,10.55
2019-04-16T17:50:39.713Z,12.37
2019-04-16T17:53:26.751Z,15.13
2019-04-16T17:58:55.252Z,9.90
2019-04-16T18:01:44.448Z,22.00
2019-04-16T18:04:19.351Z,12.20
2019-04-16T18:06:52.012Z,46.73
2019-04-16T18:09:23.751Z,23.20
2019-04-16T18:11:58.326Z,14.33
2019-04-16T18:14:46.418Z,23.87
2019-04-16T18:17:18.087Z,15.68
2019-04-16T18:19:55.625Z,15.50
2019-04-16T18:22:44.945Z,16.20
2019-04-16T18:25:21.908Z,14.35
2019-04-16T18:28:04.642Z,24.57
2019-04-16T18:30:50.737Z,29.15
2019-04-16T18:33:22.639Z,19.85
2019-04-16T18:36:06.457Z,15.13
2019-04-16T18:38:47.728Z,11.78
2019-04-16T18:41:19.520Z,16.77
2019-04-16T18:43:51.242Z,14.68
2019-04-16T18:46:23.012Z,13.62
2019-04-16T18:48:55.494Z,13.98
2019-04-16T18:51:25.809Z,14.07
2019-04-16T18:53:55.912Z,18.70
2019-04-16T18:56:26.001Z,14.85
2019-04-16T18:58:56.060Z,13.48
2019-04-16T19:01:29.621Z,35.43
2019-04-16T19:03:59.523Z,15.10
2019-04-16T19:06:29.648Z,13.53
2019-04-16T19:08:59.630Z,12.58
2019-04-16T19:11:29.701Z,12.90
2019-04-16T19:14:00.002Z,11.55
2019-04-16T19:16:30.107Z,13.70
2019-04-16T19:19:00.162Z,8.48
2019-04-16T19:21:30.269Z,9.93
2019-04-16T19:24:00.510Z,5.75
2019-04-16T19:26:30.732Z,5.15
2019-04-16T19:29:03.872Z,6.45
2019-04-16T19:31:33.218Z,6.08
2019-04-16T19:34:09.042Z,8.33
2019-04-16T19:36:36.836Z,5.70
2019-04-16T19:39:13.735Z,10.85
2019-04-16T19:41:41.234Z,8.58
2019-04-16T19:44:11.081Z,7.08
2019-04-16T19:46:45.923Z,6.45
2019-04-16T19:49:15.828Z,8.00
2019-04-16T19:51:49.263Z,12.35
2019-04-16T19:54:24.039Z,26.20
2019-04-16T19:56:54.159Z,8.35
2019-04-16T19:59:24.282Z,8.35
2019-04-16T20:01:59.573Z,7.55
2019-04-16T20:04:26.777Z,7.62
2019-04-16T20:07:00.857Z,8.53
2019-04-16T20:09:29.968Z,7.92
2019-04-16T20:12:00.700Z,7.67
2019-04-16T20:14:35.331Z,12.85
2019-04-16T20:17:04.094Z,8.88
2019-04-16T20:19:35.789Z,7.20
2019-04-16T20:22:05.849Z,7.67
2019-04-16T20:24:38.024Z,9.63
2019-04-16T20:27:08.007Z,8.18
2019-04-16T20:29:39.736Z,8.95
2019-04-16T20:32:09.964Z,7.20
2019-04-16T20:34:42.332Z,10.38
2019-04-16T20:37:11.791Z,7.97
2019-04-16T20:39:41.990Z,8.35
2019-04-16T20:42:12.019Z,8.73
2019-04-16T20:44:42.095Z,9.05
2019-04-16T20:47:12.219Z,8.60
2019-04-16T20:49:42.254Z,10.10
2019-04-16T20:52:12.245Z,9.48
2019-04-16T20:54:44.902Z,10.90
2019-04-16T20:57:14.995Z,9.95
2019-04-16T20:59:44.982Z,11.28
2019-04-16T21:02:14.982Z,10.40
2019-04-16T21:04:45.083Z,10.93
2019-04-16T21:07:15.505Z,11.78
2019-04-16T21:09:45.989Z,13.85
2019-04-16T21:12:16.123Z,13.40
2019-04-16T21:14:46.236Z,12.40
2019-04-16T21:17:16.258Z,11.68
2019-04-16T21:19:47.789Z,12.37
2019-04-16T21:22:19.085Z,12.82
2019-04-16T21:24:49.087Z,13.93
2019-04-16T21:27:19.177Z,13.93
2019-04-16T21:29:49.907Z,12.70
2019-04-16T21:32:24.659Z,13.90
2019-04-16T21:35:00.884Z,14.18
2019-04-16T21:37:48.420Z,12.55
2019-04-16T21:40:37.775Z,14.47
2019-04-16T21:43:08.869Z,13.72
2019-04-16T21:45:40.036Z,15.72
2019-04-16T21:48:12.378Z,13.65
2019-04-16T21:50:44.524Z,13.78
2019-04-16T21:53:13.531Z,14.50
2019-04-16T21:55:43.575Z,21.15
2019-04-16T21:58:14.549Z,23.55
2019-04-16T22:00:47.185Z,15.85
2019-04-16T22:03:23.331Z,17.50
2019-04-16T22:05:53.337Z,13.75
2019-04-16T22:08:23.329Z,14.58
2019-04-16T22:10:53.288Z,15.60
2019-04-16T22:13:23.370Z,15.45
2019-04-16T22:15:53.687Z,16.70
2019-04-16T22:18:25.325Z,16.80
2019-04-16T22:20:55.975Z,16.10
2019-04-16T22:23:27.168Z,15.88
2019-04-16T22:26:01.367Z,17.37
2019-04-16T22:28:28.955Z,18.45
2019-04-16T22:31:00.035Z,17.10
2019-04-16T22:33:30.167Z,16.48
2019-04-16T22:36:00.224Z,24.20
2019-04-16T22:38:31.998Z,43.75
2019-04-16T22:41:03.685Z,20.48
2019-04-16T22:43:47.237Z,17.92
2019-04-16T22:46:28.160Z,20.50
2019-04-16T22:48:59.716Z,18.70
2019-04-16T22:51:29.791Z,20.60
2019-04-16T22:53:59.767Z,17.70
2019-04-16T22:56:37.688Z,18.32
2019-04-16T22:59:08.366Z,22.30
2019-04-16T23:01:46.275Z,30.17
2019-04-16T23:04:16.493Z,24.70
2019-04-16T23:06:46.420Z,21.62
2019-04-16T23:09:17.141Z,21.73
2019-04-16T23:11:47.885Z,22.82
2019-04-16T23:14:17.890Z,23.70
2019-04-16T23:16:47.860Z,20.65
2019-04-16T23:19:20.565Z,20.68
2019-04-16T23:21:49.607Z,21.23
2019-04-16T23:24:22.965Z,21.37
2019-04-16T23:26:51.323Z,22.20
2019-04-16T23:29:21.347Z,20.45
2019-04-16T23:31:55.032Z,21.20
2019-04-16T23:34:23.775Z,21.05
2019-04-16T23:36:54.092Z,20.37
2019-04-16T23:39:24.047Z,18.98
2019-04-16T23:41:54.021Z,22.25
2019-04-16T23:44:41.975Z,22.32
2019-04-16T23:47:29.722Z,19.77
2019-04-16T23:50:04.016Z,24.30
2019-04-16T23:52:35.767Z,26.65
2019-04-16T23:55:17.460Z,23.77
2019-04-16T23:58:03.836Z,24.87
